King Philippos — 9HA3023 — position and weather

sailwx.info

Track history (hours):
 
Tides and Currents Weather Stations Pressure Air Temp Water Temp Dewpoint Dewpoint Depression Visibility Wind Speed Wind Dir Waves Ship Positions

King Philippos

Last reported at 2018-Feb-09 11:30 UTC. Time now 2018-Feb-23 06:50 UTC.
Position N 24°59' E 122°45'.
Warning: this ship's position is 13 days out of date.

Length 250 m; draft 12.6 m.

Type: Tanker. MMSI: 229046000.

Date/timePositionNaut miles runAvg speedWind from/ knotsBaromVisibWave heightAir tempDewpointWater temp
2018-Feb-09 11:30N 24°59' E 122°45'2214.4
2018-Feb-09 10:00N 24°38' E 122°39'713.9
2018-Feb-09 09:30N 24°31' E 122°38'713.5
2018-Feb-09 09:00N 24°25' E 122°36'713.1
2018-Feb-09 08:30N 24°18' E 122°34'612.8
2018-Feb-09 08:00N 24°12' E 122°33'612.9
2018-Feb-09 07:30N 24°06' E 122°31'612.6
2018-Feb-09 07:00N 23°60' E 122°30'612.6
2018-Feb-09 06:30N 23°53' E 122°29'  
2018-Feb-01 03:52N 01°15' E 103°59'4 3.9
2018-Feb-01 02:51N 01°17' E 103°56'0 0.0
2018-Feb-01 02:28N 01°17' E 103°56'0 0.1
2018-Feb-01 01:55N 01°17' E 103°56'0 0.0
2018-Feb-01 01:26N 01°17' E 103°56'0 0.0
2018-Feb-01 00:55N 01°17' E 103°56'0 0.0
2018-Feb-01 00:26N 01°17' E 103°56'0 0.0
2018-Jan-31 23:53N 01°17' E 103°56'0 0.0
2018-Jan-31 22:55N 01°17' E 103°56'0 0.0
2018-Jan-31 22:25N 01°17' E 103°56'0 0.0
2018-Jan-31 20:43N 01°17' E 103°56'0 0.2
2018-Jan-31 20:25N 01°17' E 103°56'0 0.0
2018-Jan-31 19:58N 01°17' E 103°56'0 0.1
2018-Jan-31 19:25N 01°17' E 103°56'0 0.0
2018-Jan-31 18:55N 01°17' E 103°56'0 0.0
2018-Jan-31 18:07N 01°17' E 103°56'0 0.0
2018-Jan-31 17:49N 01°17' E 103°56'0 0.0
2018-Jan-31 17:19N 01°17' E 103°56'0 0.0
2018-Jan-31 16:55N 01°17' E 103°56'0 0.0
2018-Jan-31 16:25N 01°17' E 103°56'0 0.1
2018-Jan-31 15:55N 01°17' E 103°56'0 0.1
2018-Jan-31 15:13N 01°17' E 103°56'0 0.0
2018-Jan-31 14:58N 01°17' E 103°56'0 0.1
2018-Jan-31 14:19N 01°17' E 103°56'0 0.0
2018-Jan-31 12:49N 01°17' E 103°56'0 0.5
2018-Jan-31 12:19N 01°17' E 103°56'0 0.0
2018-Jan-31 11:57N 01°17' E 103°56'1 2.2
2018-Jan-31 11:30N 01°16' E 103°57'2 3.7
2018-Jan-31 10:55N 01°14' E 103°58'3 7.5
2018-Jan-31 10:29N 01°12' E 103°55'4 8.9
2018-Jan-31 10:00N 01°11' E 103°51'5 9.3
2018-Jan-31 09:30N 01°09' E 103°47'510.3
2018-Jan-31 09:00N 01°05' E 103°43'5 9.5
2018-Jan-31 08:28N 01°03' E 103°38'510.4
2018-Jan-31 07:59N 01°05' E 103°34'510.2
2018-Jan-31 07:30N 01°08' E 103°30'510.6
2018-Jan-31 06:58N 01°11' E 103°25'  
Track history (hours):
 
Tides and Currents Weather Stations Pressure Air Temp Water Temp Dewpoint Dewpoint Depression Visibility Wind Speed Wind Dir Waves Ship Positions

King Philippos

Last reported at 2018-Feb-09 11:30 UTC. Time now 2018-Feb-23 06:50 UTC.
Position N 24°59' E 122°45'.
Warning: this ship's position is 13 days out of date.

Length 250 m; draft 12.6 m.

Type: Tanker. MMSI: 229046000.

Date/timePositionNaut miles runAvg speedWind from/ knotsBaromVisibWave heightAir tempDewpointWater temp
2018-Feb-09 11:30N 24°59' E 122°45'2214.4
2018-Feb-09 10:00N 24°38' E 122°39'713.9
2018-Feb-09 09:30N 24°31' E 122°38'713.5
2018-Feb-09 09:00N 24°25' E 122°36'713.1
2018-Feb-09 08:30N 24°18' E 122°34'612.8
2018-Feb-09 08:00N 24°12' E 122°33'612.9
2018-Feb-09 07:30N 24°06' E 122°31'612.6
2018-Feb-09 07:00N 23°60' E 122°30'612.6
2018-Feb-09 06:30N 23°53' E 122°29'  
2018-Feb-01 03:52N 01°15' E 103°59'4 3.9
2018-Feb-01 02:51N 01°17' E 103°56'0 0.0
2018-Feb-01 02:28N 01°17' E 103°56'0 0.1
2018-Feb-01 01:55N 01°17' E 103°56'0 0.0
2018-Feb-01 01:26N 01°17' E 103°56'0 0.0
2018-Feb-01 00:55N 01°17' E 103°56'0 0.0
2018-Feb-01 00:26N 01°17' E 103°56'0 0.0
2018-Jan-31 23:53N 01°17' E 103°56'0 0.0
2018-Jan-31 22:55N 01°17' E 103°56'0 0.0
2018-Jan-31 22:25N 01°17' E 103°56'0 0.0
2018-Jan-31 20:43N 01°17' E 103°56'0 0.2
2018-Jan-31 20:25N 01°17' E 103°56'0 0.0
2018-Jan-31 19:58N 01°17' E 103°56'0 0.1
2018-Jan-31 19:25N 01°17' E 103°56'0 0.0
2018-Jan-31 18:55N 01°17' E 103°56'0 0.0
2018-Jan-31 18:07N 01°17' E 103°56'0 0.0
2018-Jan-31 17:49N 01°17' E 103°56'0 0.0
2018-Jan-31 17:19N 01°17' E 103°56'0 0.0
2018-Jan-31 16:55N 01°17' E 103°56'0 0.0
2018-Jan-31 16:25N 01°17' E 103°56'0 0.1
2018-Jan-31 15:55N 01°17' E 103°56'0 0.1
2018-Jan-31 15:13N 01°17' E 103°56'0 0.0
2018-Jan-31 14:58N 01°17' E 103°56'0 0.1
2018-Jan-31 14:19N 01°17' E 103°56'0 0.0
2018-Jan-31 12:49N 01°17' E 103°56'0 0.5
2018-Jan-31 12:19N 01°17' E 103°56'0 0.0
2018-Jan-31 11:57N 01°17' E 103°56'1 2.2
2018-Jan-31 11:30N 01°16' E 103°57'2 3.7
2018-Jan-31 10:55N 01°14' E 103°58'3 7.5
2018-Jan-31 10:29N 01°12' E 103°55'4 8.9
2018-Jan-31 10:00N 01°11' E 103°51'5 9.3
2018-Jan-31 09:30N 01°09' E 103°47'510.3
2018-Jan-31 09:00N 01°05' E 103°43'5 9.5
2018-Jan-31 08:28N 01°03' E 103°38'510.4
2018-Jan-31 07:59N 01°05' E 103°34'510.2
2018-Jan-31 07:30N 01°08' E 103°30'510.6
2018-Jan-31 06:58N 01°11' E 103°25'  

Dump ship's entire track history